Time;durP1;ratioP1;P1;durP2;ratioP2;P2;SDS_P1;SDS_P2;PMS_P1;PMS_P2;Temp;Humidity;BMP_temperature;BMP_pressure;BME280_temperature;BME280_humidity;BME280_pressure;Samples;Min_cycle;Max_cycle;Signal;HPM_P1;HPM_P2
2021/01/30 00:01:05;;;;;;;22.40;5.22;;;15.30;71.20;;;;;;4194558;28;20051;-72
2021/01/30 00:03:10;;;;;;;17.52;4.10;;;15.50;67.50;;;;;;4194721;28;20068;-72
2021/01/30 00:05:12;;;;;;;11.75;3.45;;;15.70;66.30;;;;;;4194271;28;20074;-71
2021/01/30 00:07:14;;;;;;;16.92;3.88;;;15.40;69.30;;;;;;4194486;28;20044;-71
2021/01/30 00:09:16;;;;;;;24.45;5.18;;;15.20;69.00;;;;;;4194267;28;20048;-70
2021/01/30 00:11:18;;;;;;;20.95;4.28;;;15.20;68.90;;;;;;4194154;28;20048;-72
2021/01/30 00:13:20;;;;;;;22.08;4.70;;;15.00;69.10;;;;;;4194389;28;20408;-69
2021/01/30 00:15:24;;;;;;;28.23;5.57;;;14.60;70.00;;;;;;4194380;28;20441;-73
2021/01/30 00:17:27;;;;;;;28.30;5.45;;;14.10;70.10;;;;;;4194444;28;20405;-72
2021/01/30 00:19:30;;;;;;;17.55;3.70;;;13.30;73.00;;;;;;4194897;28;20044;-71
2021/01/30 00:21:31;;;;;;;21.38;4.93;;;13.80;77.60;;;;;;4194924;28;20049;-71
2021/01/30 00:23:33;;;;;;;23.75;4.95;;;13.90;74.80;;;;;;4196675;28;20041;-72
2021/01/30 00:25:37;;;;;;;27.05;6.30;;;13.90;74.20;;;;;;4195732;28;20053;-72
2021/01/30 00:27:39;;;;;;;28.60;6.13;;;14.10;75.70;;;;;;4195247;28;20459;-71
2021/01/30 00:29:41;;;;;;;31.33;5.65;;;14.30;74.00;;;;;;4195977;28;20299;-69
2021/01/30 00:31:43;;;;;;;33.70;6.65;;;14.00;75.40;;;;;;4195039;28;20048;-70
2021/01/30 00:33:46;;;;;;;34.10;5.10;;;13.70;75.70;;;;;;4194505;28;20084;-70
2021/01/30 00:35:47;;;;;;;38.72;7.07;;;13.60;76.20;;;;;;4194308;28;20045;-71
2021/01/30 00:37:49;;;;;;;39.75;6.90;;;13.10;79.20;;;;;;4193922;28;20079;-71
2021/01/30 00:39:53;;;;;;;41.83;7.03;;;12.80;80.70;;;;;;4194193;28;20441;-73
2021/01/30 00:41:54;;;;;;;34.75;5.20;;;12.20;85.50;;;;;;4197345;28;20276;-71
2021/01/30 00:43:56;;;;;;;32.53;6.22;;;12.20;84.60;;;;;;4197200;28;20044;-70
2021/01/30 00:45:58;;;;;;;28.45;5.45;;;12.20;86.90;;;;;;4179736;28;20045;-71
2021/01/30 00:48:00;;;;;;;27.48;5.53;;;13.20;83.20;;;;;;4197369;28;20045;-72
2021/01/30 00:50:04;;;;;;;29.98;5.85;;;13.30;80.40;;;;;;4197298;28;20044;-69
2021/01/30 00:52:07;;;;;;;21.10;4.93;;;13.40;81.80;;;;;;4197894;28;20076;-70
2021/01/30 00:54:09;;;;;;;37.90;6.32;;;13.80;80.50;;;;;;4197018;28;20098;-70
2021/01/30 00:56:11;;;;;;;32.45;6.25;;;14.20;76.60;;;;;;4197287;28;20102;-68
2021/01/30 00:58:13;;;;;;;19.30;4.85;;;14.50;75.30;;;;;;4197165;28;20138;-70
2021/01/30 01:00:16;;;;;;;32.35;6.57;;;14.20;77.20;;;;;;4197062;28;20052;-68
2021/01/30 01:02:18;;;;;;;29.63;5.93;;;14.40;75.40;;;;;;4197411;28;20051;-69
2021/01/30 01:04:20;;;;;;;32.83;6.47;;;14.00;78.00;;;;;;4197428;28;20477;-69
2021/01/30 01:06:23;;;;;;;41.40;7.15;;;13.80;78.50;;;;;;4196960;28;20044;-69
2021/01/30 01:08:25;;;;;;;46.88;8.57;;;12.80;83.10;;;;;;4196656;28;20131;-71
2021/01/30 01:10:26;;;;;;;50.75;7.00;;;12.90;84.40;;;;;;4196678;28;20548;-72
2021/01/30 01:12:28;;;;;;;39.85;7.65;;;12.60;85.00;;;;;;4196454;28;20059;-69
2021/01/30 01:14:30;;;;;;;33.28;7.00;;;12.60;85.50;;;;;;4178802;28;20060;-70
2021/01/30 01:16:32;;;;;;;29.08;5.85;;;13.00;86.00;;;;;;4197100;28;20106;-72
2021/01/30 01:18:34;;;;;;;36.28;6.78;;;13.20;84.50;;;;;;4197490;28;20212;-71
2021/01/30 01:20:37;;;;;;;36.95;6.85;;;13.50;82.30;;;;;;4197639;28;20378;-70
2021/01/30 01:22:39;;;;;;;35.45;6.60;;;13.80;81.50;;;;;;4197695;28;20094;-70
2021/01/30 01:24:41;;;;;;;36.63;8.35;;;14.10;79.40;;;;;;4197227;28;20052;-69
2021/01/30 01:26:44;;;;;;;43.47;7.85;;;13.50;80.90;;;;;;4197133;28;20371;-70
2021/01/30 01:28:46;;;;;;;34.05;6.20;;;13.20;82.60;;;;;;4196380;28;20322;-70
2021/01/30 01:30:48;;;;;;;23.77;5.15;;;13.30;85.40;;;;;;4196062;28;20097;-70
2021/01/30 01:32:50;;;;;;;38.78;7.68;;;13.70;83.40;;;;;;4197162;28;20473;-71
2021/01/30 01:34:52;;;;;;;40.40;6.07;;;13.60;82.30;;;;;;4197228;28;20044;-69
2021/01/30 01:36:56;;;;;;;39.92;7.57;;;13.90;82.00;;;;;;4196798;28;20102;-70
2021/01/30 01:38:58;;;;;;;43.75;7.85;;;13.80;81.80;;;;;;4197082;28;20488;-70
2021/01/30 01:41:01;;;;;;;23.95;5.15;;;14.40;78.80;;;;;;4196787;28;20071;-70
2021/01/30 01:43:06;;;;;;;21.08;5.38;;;14.60;79.20;;;;;;4196285;28;20071;-70
2021/01/30 01:45:09;;;;;;;43.90;8.13;;;15.00;77.40;;;;;;4196389;28;20396;-70
2021/01/30 01:47:16;;;;;;;29.08;6.13;;;14.60;77.70;;;;;;4196074;28;20063;-70
2021/01/30 01:49:26;;;;;;;34.10;6.22;;;14.80;76.90;;;;;;4196213;28;20048;-70
2021/01/30 01:51:37;;;;;;;31.13;6.20;;;15.00;76.20;;;;;;4196083;28;20060;-69
2021/01/30 01:53:43;;;;;;;47.47;6.18;;;15.00;76.30;;;;;;4195678;28;20566;-69
2021/01/30 01:55:49;;;;;;;25.88;5.55;;;14.80;76.40;;;;;;4196187;28;20098;-70
2021/01/30 01:57:54;;;;;;;36.25;6.45;;;15.20;76.40;;;;;;4196038;28;20057;-71
2021/01/30 01:59:56;;;;;;;41.28;8.10;;;15.40;75.00;;;;;;4195842;28;20102;-72
2021/01/30 02:01:58;;;;;;;40.72;7.45;;;15.30;74.80;;;;;;4195912;28;20496;-71
2021/01/30 02:04:04;;;;;;;32.97;6.13;;;15.10;75.60;;;;;;4197931;28;20053;-71
2021/01/30 02:06:06;;;;;;;37.15;7.50;;;15.10;76.10;;;;;;4198115;28;20041;-72
2021/01/30 02:08:10;;;;;;;48.70;8.88;;;14.80;77.20;;;;;;4196365;28;20478;-70
2021/01/30 02:10:13;;;;;;;54.58;9.13;;;14.80;77.10;;;;;;4196291;28;20046;-71
2021/01/30 02:12:17;;;;;;;36.78;6.88;;;14.60;78.30;;;;;;4196243;28;20076;-71
2021/01/30 02:14:19;;;;;;;21.75;4.57;;;14.60;78.90;;;;;;4195864;28;20109;-71
2021/01/30 02:16:34;;;;;;;35.47;6.63;;;15.30;76.70;;;;;;4196721;28;20543;-70
2021/01/30 02:18:46;;;;;;;54.85;8.82;;;15.10;77.30;;;;;;4195847;28;20044;-71
2021/01/30 02:21:35;;;;;;;42.38;7.60;;;14.50;79.10;;;;;;4195493;28;20044;-72
2021/01/30 02:24:05;;;;;;;34.30;6.35;;;14.20;80.80;;;;;;4143910;28;20049;-70
2021/01/30 02:26:49;;;;;;;44.05;7.93;;;14.40;81.50;;;;;;4165351;28;20452;-70
2021/01/30 02:29:10;;;;;;;58.85;8.60;;;14.60;79.60;;;;;;4168726;28;20097;-72
2021/01/30 02:31:39;;;;;;;42.20;7.72;;;14.70;79.50;;;;;;4195082;28;20044;-71
2021/01/30 02:34:11;;;;;;;52.88;8.07;;;15.20;78.00;;;;;;4175975;28;20041;-70
2021/01/30 02:36:26;;;;;;;59.28;7.88;;;15.10;77.80;;;;;;4195332;28;20086;-71
2021/01/30 02:38:29;;;;;;;44.63;7.65;;;14.90;78.60;;;;;;4195269;28;20048;-71
2021/01/30 02:40:38;;;;;;;52.45;8.27;;;14.80;79.80;;;;;;4195023;28;20049;-71
2021/01/30 02:42:42;;;;;;;43.30;7.10;;;14.90;79.70;;;;;;4195007;28;20049;-71
2021/01/30 02:44:49;;;;;;;33.10;6.50;;;15.00;78.80;;;;;;4195306;28;20433;-71
2021/01/30 02:46:54;;;;;;;26.92;5.35;;;15.50;76.90;;;;;;4195312;28;20040;-70
2021/01/30 02:49:04;;;;;;;44.67;7.85;;;15.30;77.30;;;;;;4194988;28;20049;-70
2021/01/30 02:51:10;;;;;;;36.95;6.47;;;15.40;77.30;;;;;;4195299;28;20094;-70
2021/01/30 02:53:16;;;;;;;29.65;5.57;;;15.70;75.50;;;;;;4194779;28;20126;-71
2021/01/30 02:55:20;;;;;;;52.33;8.88;;;15.70;75.70;;;;;;4177207;28;20049;-70
2021/01/30 02:57:24;;;;;;;42.75;8.38;;;15.30;76.70;;;;;;4195172;28;20045;-71
2021/01/30 02:59:28;;;;;;;28.33;6.35;;;15.50;76.40;;;;;;4195528;28;20044;-71
2021/01/30 03:01:32;;;;;;;26.90;5.25;;;15.80;75.80;;;;;;4195708;28;20055;-71
2021/01/30 03:03:35;;;;;;;32.05;6.65;;;16.10;74.40;;;;;;4195332;28;20119;-69
2021/01/30 03:05:36;;;;;;;31.15;5.97;;;15.90;74.90;;;;;;4195600;28;20044;-70
2021/01/30 03:07:50;;;;;;;37.95;6.97;;;15.50;75.70;;;;;;4196336;28;20044;-71
2021/01/30 03:10:00;;;;;;;26.50;6.10;;;15.70;76.00;;;;;;4202805;28;20078;-71
2021/01/30 03:12:09;;;;;;;28.40;5.28;;;16.10;74.30;;;;;;4211402;28;20507;-71
2021/01/30 03:14:16;;;;;;;40.72;6.25;;;16.10;74.30;;;;;;4197572;28;20048;-74
2021/01/30 03:16:21;;;;;;;34.05;5.57;;;15.70;76.20;;;;;;4194905;28;20341;-70
2021/01/30 03:18:27;;;;;;;40.45;5.88;;;15.40;77.40;;;;;;4194958;28;20049;-71
2021/01/30 03:20:31;;;;;;;32.33;5.05;;;15.10;78.30;;;;;;4194413;28;20098;-68
2021/01/30 03:22:38;;;;;;;26.00;4.78;;;15.10;78.80;;;;;;4194609;28;20481;-70
2021/01/30 03:24:45;;;;;;;20.65;5.07;;;15.40;77.90;;;;;;4194448;28;20110;-69
2021/01/30 03:26:48;;;;;;;20.83;4.32;;;15.60;76.40;;;;;;4194818;28;20358;-70
2021/01/30 03:28:50;;;;;;;24.15;4.85;;;15.30;77.60;;;;;;4194978;28;20048;-70
2021/01/30 03:30:52;;;;;;;15.88;4.53;;;15.40;77.70;;;;;;4194163;28;20041;-70
2021/01/30 03:32:54;;;;;;;19.00;4.00;;;15.30;79.40;;;;;;4194747;28;20076;-69
2021/01/30 03:34:57;;;;;;;23.88;4.57;;;15.10;80.20;;;;;;4194384;28;20057;-70
2021/01/30 03:36:59;;;;;;;25.23;4.53;;;15.00;79.30;;;;;;4194691;28;20048;-70
2021/01/30 03:39:01;;;;;;;18.20;3.88;;;15.20;78.70;;;;;;4194693;28;20048;-69
2021/01/30 03:41:02;;;;;;;21.70;4.20;;;15.60;77.40;;;;;;4194559;28;20045;-70
2021/01/30 03:43:05;;;;;;;15.82;3.58;;;15.40;77.70;;;;;;4194543;28;20045;-69
2021/01/30 03:45:11;;;;;;;16.63;3.50;;;15.80;76.30;;;;;;4197144;28;20040;-72
2021/01/30 03:47:13;;;;;;;20.45;4.85;;;16.00;75.30;;;;;;4198383;28;20048;-69
2021/01/30 03:49:15;;;;;;;33.58;4.97;;;16.00;75.50;;;;;;4194449;28;20440;-69
2021/01/30 03:51:17;;;;;;;27.70;4.90;;;15.70;76.10;;;;;;4195039;28;20098;-69
2021/01/30 03:53:18;;;;;;;19.00;3.65;;;15.60;76.80;;;;;;4194891;28;20357;-69
2021/01/30 03:55:21;;;;;;;19.35;4.10;;;15.60;76.70;;;;;;4194670;28;20091;-69
2021/01/30 03:57:23;;;;;;;15.35;4.38;;;15.70;76.50;;;;;;4194680;28;20308;-71
2021/01/30 03:59:25;;;;;;;26.25;5.25;;;16.10;75.00;;;;;;4194645;28;20409;-71
2021/01/30 04:01:32;;;;;;;21.77;4.43;;;15.90;75.30;;;;;;4194024;28;20049;-70
2021/01/30 04:03:40;;;;;;;28.92;5.25;;;15.90;75.70;;;;;;4194484;28;20530;-71
2021/01/30 04:05:42;;;;;;;17.67;4.03;;;15.50;76.90;;;;;;4194276;28;20051;-69
2021/01/30 04:07:44;;;;;;;17.23;4.63;;;16.00;75.30;;;;;;4194510;28;20114;-70
2021/01/30 04:09:48;;;;;;;19.50;4.35;;;15.80;76.00;;;;;;4194155;28;20049;-69
2021/01/30 04:11:50;;;;;;;18.52;3.97;;;15.70;77.80;;;;;;4194084;28;20049;-70
2021/01/30 04:13:52;;;;;;;19.20;3.90;;;15.50;77.30;;;;;;4193938;28;20057;-70
2021/01/30 04:15:55;;;;;;;19.10;4.18;;;16.10;75.50;;;;;;4195581;28;20045;-69
2021/01/30 04:17:57;;;;;;;19.63;4.53;;;16.30;74.40;;;;;;4197325;28;20049;-71
2021/01/30 04:19:59;;;;;;;18.85;3.50;;;16.40;73.70;;;;;;4197455;28;20501;-71
2021/01/30 04:22:01;;;;;;;17.10;4.45;;;15.90;75.50;;;;;;4197302;28;20049;-69
2021/01/30 04:24:03;;;;;;;19.55;3.80;;;16.00;75.00;;;;;;4197323;28;20551;-69
2021/01/30 04:26:05;;;;;;;21.70;4.68;;;16.20;74.60;;;;;;4197138;28;20062;-69
2021/01/30 04:28:06;;;;;;;16.67;3.83;;;15.80;75.40;;;;;;4197071;28;20048;-71
2021/01/30 04:30:11;;;;;;;13.30;3.90;;;16.00;75.80;;;;;;4197577;28;20068;-73
2021/01/30 04:32:13;;;;;;;15.50;4.15;;;15.90;76.00;;;;;;4196983;28;20432;-71
2021/01/30 04:34:15;;;;;;;15.25;4.18;;;15.80;75.90;;;;;;4196931;28;20044;-71
2021/01/30 04:36:19;;;;;;;19.67;3.42;;;16.10;75.00;;;;;;4197371;28;20559;-70
2021/01/30 04:38:20;;;;;;;13.88;2.95;;;16.20;74.90;;;;;;4197200;28;20044;-70
2021/01/30 04:40:28;;;;;;;10.75;3.30;;;15.80;75.80;;;;;;4197471;28;20048;-71
2021/01/30 04:42:39;;;;;;;14.10;3.25;;;15.80;76.90;;;;;;4198436;28;20053;-71
2021/01/30 04:44:48;;;;;;;15.02;3.58;;;15.90;75.90;;;;;;4198674;28;20048;-71
2021/01/30 04:46:59;;;;;;;13.07;3.55;;;15.70;76.60;;;;;;4198688;28;20468;-71
2021/01/30 04:49:09;;;;;;;16.95;3.72;;;16.00;75.60;;;;;;4198394;28;20048;-70
2021/01/30 04:51:17;;;;;;;12.85;3.38;;;16.10;75.70;;;;;;4197455;28;20428;-70
2021/01/30 04:53:36;;;;;;;11.40;3.15;;;16.00;75.60;;;;;;4196977;28;20471;-69
2021/01/30 04:55:57;;;;;;;15.55;3.97;;;15.80;76.00;;;;;;4196695;28;20045;-71
2021/01/30 04:58:08;;;;;;;11.27;3.33;;;15.80;75.80;;;;;;4196760;28;20475;-71
2021/01/30 05:00:44;;;;;;;13.15;3.05;;;16.20;75.20;;;;;;4196851;28;20051;-70
2021/01/30 05:02:58;;;;;;;14.38;3.72;;;16.30;74.70;;;;;;4191880;28;20397;-70
2021/01/30 05:05:04;;;;;;;10.52;2.83;;;15.80;76.40;;;;;;4196538;28;20048;-71
2021/01/30 05:07:15;;;;;;;13.73;3.70;;;15.80;76.90;;;;;;4196804;28;20156;-71
2021/01/30 05:09:23;;;;;;;13.43;3.28;;;15.80;77.00;;;;;;4196736;28;20052;-71
2021/01/30 05:11:27;;;;;;;18.60;4.10;;;15.50;78.10;;;;;;4196378;28;20105;-71
2021/01/30 05:13:40;;;;;;;11.15;3.35;;;14.80;80.00;;;;;;4196639;28;20056;-71
2021/01/30 05:15:46;;;;;;;10.07;2.90;;;15.00;81.30;;;;;;4196832;28;20544;-71
2021/01/30 05:17:57;;;;;;;11.13;3.03;;;14.10;83.60;;;;;;4196814;28;20056;-70
2021/01/30 05:20:05;;;;;;;8.57;2.50;;;14.70;82.80;;;;;;4196271;28;20098;-71
2021/01/30 05:22:11;;;;;;;9.65;2.50;;;13.90;86.40;;;;;;4196654;28;20098;-70
2021/01/30 05:24:14;;;;;;;8.85;2.00;;;14.50;85.90;;;;;;4196985;28;20044;-71
2021/01/30 05:26:26;;;;;;;11.20;2.42;;;14.60;84.70;;;;;;4199020;28;20044;-68
2021/01/30 05:28:37;;;;;;;8.63;2.38;;;15.00;83.00;;;;;;4199043;28;20049;-74
2021/01/30 05:30:51;;;;;;;11.65;2.85;;;15.10;81.40;;;;;;4196617;28;20055;-70
2021/01/30 05:33:09;;;;;;;9.63;2.55;;;14.70;83.30;;;;;;4197014;28;20399;-71
2021/01/30 05:35:17;;;;;;;11.00;2.65;;;15.10;81.60;;;;;;4196886;28;20044;-70
2021/01/30 05:37:26;;;;;;;9.45;2.72;;;14.90;80.80;;;;;;4197062;28;20110;-70
2021/01/30 05:39:56;;;;;;;7.03;2.13;;;14.80;80.80;;;;;;4196926;28;20415;-71
2021/01/30 05:42:06;;;;;;;6.07;1.88;;;15.00;81.60;;;;;;4182932;28;20090;-70
2021/01/30 05:44:14;;;;;;;7.40;2.50;;;14.20;89.60;;;;;;4196273;28;20044;-71
2021/01/30 05:46:23;;;;;;;6.57;2.00;;;14.10;87.90;;;;;;4196737;28;20473;-70
2021/01/30 05:48:29;;;;;;;7.65;2.13;;;14.90;85.20;;;;;;4196609;28;20044;-71
2021/01/30 05:50:38;;;;;;;8.27;2.40;;;15.00;83.20;;;;;;4196049;28;20045;-71
2021/01/30 05:52:41;;;;;;;5.25;1.70;;;14.70;83.40;;;;;;4195829;28;20079;-70
2021/01/30 05:54:42;;;;;;;5.75;1.73;;;14.90;83.20;;;;;;4195710;28;20048;-72
2021/01/30 05:56:45;;;;;;;6.85;1.80;;;15.70;80.40;;;;;;4195733;28;20072;-70
2021/01/30 05:58:48;;;;;;;9.45;2.33;;;15.90;80.00;;;;;;4196030;28;20048;-70
2021/01/30 06:00:50;;;;;;;8.43;1.90;;;15.10;82.40;;;;;;4195809;28;20443;-70
2021/01/30 06:03:08;;;;;;;7.47;1.83;;;14.60;84.60;;;;;;4195743;28;20048;-70
2021/01/30 06:05:17;;;;;;;4.90;1.60;;;15.00;83.40;;;;;;4196001;28;20093;-70
2021/01/30 06:07:31;;;;;;;5.13;1.92;;;15.40;82.50;;;;;;4195947;28;20048;-70
2021/01/30 06:09:36;;;;;;;5.47;2.00;;;15.30;81.10;;;;;;4196050;28;20048;-70
2021/01/30 06:11:44;;;;;;;2.53;1.23;;;15.10;82.00;;;;;;4195558;28;20044;-70
2021/01/30 06:13:56;;;;;;;4.05;1.40;;;15.20;82.10;;;;;;4195484;28;20147;-69
2021/01/30 06:15:59;;;;;;;5.70;1.73;;;15.40;81.50;;;;;;4195819;28;20044;-70
2021/01/30 06:18:24;;;;;;;4.25;2.08;;;15.60;81.00;;;;;;4195868;28;20538;-70
2021/01/30 06:20:29;;;;;;;6.10;1.90;;;14.70;84.50;;;;;;4195833;28;20087;-69
2021/01/30 06:22:33;;;;;;;4.35;1.48;;;14.40;85.10;;;;;;4195878;28;20056;-70
2021/01/30 06:24:35;;;;;;;5.35;1.73;;;14.60;86.30;;;;;;4196221;28;20287;-70
2021/01/30 06:26:42;;;;;;;5.47;1.70;;;14.10;87.00;;;;;;4196749;28;20053;-71
2021/01/30 06:28:54;;;;;;;2.05;1.00;;;14.40;86.50;;;;;;4197026;28;20044;-71
2021/01/30 06:31:09;;;;;;;2.53;1.27;;;13.90;89.10;;;;;;4196611;28;20041;-71
2021/01/30 06:33:23;;;;;;;3.67;1.50;;;14.30;86.80;;;;;;4196032;28;20094;-70
2021/01/30 06:35:30;;;;;;;3.38;1.42;;;14.50;85.90;;;;;;4195208;28;20393;-71
2021/01/30 06:37:40;;;;;;;3.13;1.42;;;14.40;86.30;;;;;;4195224;28;20071;-71
2021/01/30 06:39:44;;;;;;;3.08;1.40;;;14.90;84.80;;;;;;4194976;28;20040;-70
2021/01/30 06:41:53;;;;;;;2.28;1.00;;;15.20;83.30;;;;;;4195214;28;20050;-70
2021/01/30 06:44:12;;;;;;;3.13;1.10;;;15.00;84.30;;;;;;4195256;28;20105;-70
2021/01/30 06:46:16;;;;;;;2.20;0.90;;;14.40;86.40;;;;;;4194960;28;20474;-71
2021/01/30 06:48:26;;;;;;;1.27;0.68;;;14.60;86.10;;;;;;4195295;28;20048;-71
2021/01/30 06:50:36;;;;;;;4.10;0.95;;;14.20;87.40;;;;;;4195154;28;20501;-70
2021/01/30 06:52:39;;;;;;;3.78;1.10;;;14.40;86.20;;;;;;4195217;28;20052;-70
2021/01/30 06:54:41;;;;;;;2.38;0.82;;;13.90;91.50;;;;;;4195222;28;20509;-70
2021/01/30 06:56:43;;;;;;;3.13;0.93;;;14.30;91.80;;;;;;4194848;28;20068;-69
2021/01/30 06:58:47;;;;;;;4.15;1.17;;;14.10;90.60;;;;;;4194894;28;20117;-69
2021/01/30 07:00:50;;;;;;;2.40;1.23;;;14.20;90.60;;;;;;4194811;28;20045;-71
2021/01/30 07:03:04;;;;;;;4.25;0.80;;;13.70;91.40;;;;;;4194706;28;20045;-70
2021/01/30 07:05:22;;;;;;;2.45;0.80;;;13.50;92.60;;;;;;4194899;28;20041;-70
2021/01/30 07:07:29;;;;;;;3.28;1.02;;;14.20;90.40;;;;;;4195303;28;20040;-71
2021/01/30 07:09:52;;;;;;;1.80;0.70;;;14.50;90.20;;;;;;4197243;28;20049;-70
2021/01/30 07:11:59;;;;;;;1.48;0.63;;;14.40;90.70;;;;;;4195189;28;20048;-70
2021/01/30 07:14:08;;;;;;;3.55;0.73;;;13.70;91.30;;;;;;4194497;28;20059;-71
2021/01/30 07:16:23;;;;;;;1.52;0.65;;;14.00;91.00;;;;;;4194853;28;20053;-70
2021/01/30 07:18:30;;;;;;;0.80;0.50;;;14.10;90.20;;;;;;4195329;28;20048;-71
2021/01/30 07:20:39;;;;;;;2.35;0.80;;;14.10;90.90;;;;;;4195289;28;20059;-70
2021/01/30 07:22:49;;;;;;;2.53;0.90;;;13.90;90.20;;;;;;4195147;28;20055;-71
2021/01/30 07:24:59;;;;;;;4.00;0.90;;;13.90;90.10;;;;;;4195042;28;20405;-70
2021/01/30 07:27:06;;;;;;;1.67;0.90;;;14.10;89.10;;;;;;4195070;28;20063;-70
2021/01/30 07:29:13;;;;;;;1.27;0.70;;;14.00;90.30;;;;;;4208640;28;20048;-69
2021/01/30 07:31:28;;;;;;;4.13;0.93;;;14.10;90.60;;;;;;4203284;28;20421;-70
2021/01/30 07:33:41;;;;;;;2.20;0.65;;;13.80;90.10;;;;;;4194284;28;20132;-71
2021/01/30 07:35:55;;;;;;;6.20;0.70;;;14.00;89.80;;;;;;4194490;28;20097;-71
2021/01/30 07:38:04;;;;;;;2.70;0.95;;;13.60;91.00;;;;;;4195337;28;20049;-70
2021/01/30 07:40:13;;;;;;;0.75;0.60;;;13.60;91.20;;;;;;4195921;28;20045;-72
2021/01/30 07:42:19;;;;;;;2.83;1.25;;;13.90;90.80;;;;;;4194182;28;20056;-71
2021/01/30 07:44:27;;;;;;;1.30;0.68;;;14.00;90.10;;;;;;4194544;28;20393;-71
2021/01/30 07:46:33;;;;;;;1.10;0.90;;;14.90;87.20;;;;;;4194438;28;20045;-70
2021/01/30 07:48:46;;;;;;;1.98;0.95;;;14.50;88.80;;;;;;4194466;28;20110;-71
2021/01/30 07:50:51;;;;;;;1.65;0.90;;;14.50;88.80;;;;;;4193635;28;20044;-70
2021/01/30 07:53:05;;;;;;;3.55;0.90;;;14.70;87.70;;;;;;4194290;28;20056;-70
2021/01/30 07:55:10;;;;;;;1.83;0.80;;;15.10;86.60;;;;;;4194251;28;20052;-71
2021/01/30 07:57:43;;;;;;;1.67;0.85;;;14.80;86.80;;;;;;4194163;28;20047;-71
2021/01/30 07:59:53;;;;;;;1.63;0.80;;;14.80;86.80;;;;;;4190511;28;20045;-71
2021/01/30 08:02:33;;;;;;;1.80;0.88;;;15.10;85.70;;;;;;4194173;28;20476;-70
2021/01/30 08:05:04;;;;;;;1.33;0.75;;;15.20;86.00;;;;;;4184778;28;20048;-69
2021/01/30 08:07:14;;;;;;;2.47;0.63;;;15.80;83.50;;;;;;4179944;28;20134;-69
2021/01/30 08:09:26;;;;;;;2.30;0.75;;;16.70;80.30;;;;;;4189183;28;20051;-69
2021/01/30 08:11:36;;;;;;;1.20;0.60;;;16.90;79.10;;;;;;4194660;28;20550;-70
2021/01/30 08:13:45;;;;;;;1.33;0.60;;;16.80;79.70;;;;;;4191238;28;20036;-71
2021/01/30 08:15:55;;;;;;;6.38;0.82;;;16.90;78.90;;;;;;4195299;28;20045;-72
2021/01/30 08:18:12;;;;;;;2.28;0.70;;;17.30;77.60;;;;;;4198133;28;20083;-73
2021/01/30 08:20:20;;;;;;;1.33;0.80;;;17.60;76.50;;;;;;4192696;28;20064;-72
2021/01/30 08:22:31;;;;;;;5.53;0.90;;;17.40;76.90;;;;;;4193678;28;20049;-72
2021/01/30 08:24:45;;;;;;;3.13;0.65;;;17.30;77.70;;;;;;4191166;28;20109;-71
2021/01/30 08:26:57;;;;;;;0.82;0.50;;;17.30;78.10;;;;;;4193468;28;20078;-72
2021/01/30 08:29:19;;;;;;;8.98;1.17;;;17.30;78.00;;;;;;4192442;28;20094;-71
2021/01/30 08:31:39;;;;;;;1.90;0.70;;;17.40;77.60;;;;;;4191633;28;20041;-72
2021/01/30 08:34:07;;;;;;;1.42;0.60;;;17.00;79.70;;;;;;4193471;28;20057;-72
2021/01/30 08:36:35;;;;;;;2.85;0.80;;;17.40;78.00;;;;;;4193381;28;20477;-72
2021/01/30 08:38:38;;;;;;;2.92;0.75;;;16.90;79.40;;;;;;4191714;28;20075;-72
2021/01/30 08:40:50;;;;;;;3.00;0.70;;;16.90;79.90;;;;;;4193362;28;20052;-72
2021/01/30 08:42:56;;;;;;;5.25;1.08;;;16.60;80.90;;;;;;4186278;28;20122;-71
2021/01/30 08:45:00;;;;;;;1.08;0.60;;;17.30;78.50;;;;;;4193692;28;20463;-72
2021/01/30 08:47:14;;;;;;;6.03;0.77;;;17.30;78.30;;;;;;4193987;28;20478;-71
2021/01/30 08:49:23;;;;;;;1.27;0.50;;;17.10;79.40;;;;;;4173906;28;20056;-72
2021/01/30 08:51:26;;;;;;;2.65;0.50;;;17.10;79.20;;;;;;4201821;28;20055;-73
2021/01/30 08:53:31;;;;;;;3.10;0.77;;;17.20;79.50;;;;;;4195558;28;20084;-73
2021/01/30 08:55:53;;;;;;;3.97;0.80;;;17.30;79.20;;;;;;4193339;28;20628;-71
2021/01/30 08:57:56;;;;;;;4.10;0.50;;;17.40;78.10;;;;;;4187909;28;20053;-73
2021/01/30 08:59:59;;;;;;;3.25;0.60;;;17.30;78.50;;;;;;4178365;28;20052;-74
2021/01/30 09:02:01;;;;;;;1.95;0.60;;;17.20;79.00;;;;;;4191740;28;20047;-72
2021/01/30 09:04:43;;;;;;;0.83;0.50;;;17.80;76.90;;;;;;4186427;28;20049;-73
2021/01/30 09:06:56;;;;;;;6.43;0.90;;;18.10;76.10;;;;;;4194069;28;20129;-72
2021/01/30 09:09:04;;;;;;;2.33;0.98;;;17.70;77.50;;;;;;4194269;28;20495;-70
2021/01/30 09:11:35;;;;;;;2.53;0.70;;;17.50;78.10;;;;;;4159780;28;20103;-71
2021/01/30 09:14:02;;;;;;;3.95;1.30;;;17.40;78.30;;;;;;4186862;28;20088;-73
2021/01/30 09:16:04;;;;;;;2.50;0.73;;;17.90;77.00;;;;;;4193043;28;20060;-72
2021/01/30 09:18:12;;;;;;;5.13;0.93;;;17.80;77.00;;;;;;4193183;28;20617;-72
2021/01/30 09:20:25;;;;;;;8.75;1.30;;;18.30;75.40;;;;;;4193215;28;20049;-72
2021/01/30 09:22:45;;;;;;;5.43;1.02;;;18.10;76.10;;;;;;4193219;28;20377;-73
2021/01/30 09:25:15;;;;;;;9.40;1.13;;;18.10;76.20;;;;;;4193023;28;20086;-72
2021/01/30 09:27:22;;;;;;;2.53;0.80;;;17.80;77.20;;;;;;4177341;28;20057;-72
2021/01/30 09:29:33;;;;;;;6.22;1.10;;;17.50;78.30;;;;;;4209265;28;20071;-72
2021/01/30 09:31:35;;;;;;;6.05;1.27;;;17.60;78.20;;;;;;4198713;28;20049;-72
2021/01/30 09:33:40;;;;;;;1.85;0.80;;;17.80;77.70;;;;;;4191681;28;20111;-72
2021/01/30 09:35:43;;;;;;;9.77;1.20;;;18.10;77.10;;;;;;4191689;28;20056;-74
2021/01/30 09:37:47;;;;;;;9.10;1.25;;;17.80;77.60;;;;;;4191179;28;20436;-71
2021/01/30 09:39:56;;;;;;;9.93;1.58;;;17.80;77.90;;;;;;4190285;28;20040;-72
2021/01/30 09:42:09;;;;;;;7.38;1.10;;;17.60;78.00;;;;;;4190363;28;20420;-73
2021/01/30 09:44:18;;;;;;;6.93;1.42;;;17.30;79.90;;;;;;4189241;28;20076;-72
2021/01/30 09:46:22;;;;;;;5.13;1.52;;;17.00;80.90;;;;;;4191230;28;20048;-74
2021/01/30 09:48:25;;;;;;;8.60;1.63;;;17.50;79.90;;;;;;4188690;28;20394;-72
2021/01/30 09:50:34;;;;;;;8.02;2.03;;;17.10;80.50;;;;;;4191436;28;20044;-74
2021/01/30 09:52:49;;;;;;;13.50;2.10;;;16.40;82.50;;;;;;4192118;28;20086;-74
2021/01/30 09:54:54;;;;;;;15.43;2.83;;;16.50;84.10;;;;;;4190946;28;20045;-73
2021/01/30 09:57:02;;;;;;;13.18;1.90;;;16.70;82.40;;;;;;4191965;28;20639;-72
2021/01/30 09:59:05;;;;;;;7.63;1.58;;;16.70;82.10;;;;;;4191665;28;20052;-74
2021/01/30 10:01:12;;;;;;;19.60;1.95;;;17.30;80.40;;;;;;4188005;28;20892;-74
2021/01/30 10:03:21;;;;;;;15.00;1.88;;;17.60;80.20;;;;;;4192955;28;20063;-74
2021/01/30 10:05:25;;;;;;;10.65;1.60;;;18.00;78.20;;;;;;4192131;28;20382;-74
2021/01/30 10:07:29;;;;;;;13.02;1.80;;;17.80;79.40;;;;;;4179452;28;20053;-73
2021/01/30 10:09:39;;;;;;;7.97;1.80;;;18.00;78.60;;;;;;4190405;28;20053;-75
2021/01/30 10:11:54;;;;;;;7.65;1.48;;;18.00;78.50;;;;;;4184306;28;20052;-74
2021/01/30 10:14:02;;;;;;;14.88;1.70;;;18.00;78.10;;;;;;4201312;28;20048;-73
2021/01/30 10:16:15;;;;;;;12.07;2.13;;;18.30;77.60;;;;;;4179712;28;20083;-74
2021/01/30 10:18:24;;;;;;;6.43;1.60;;;18.20;77.40;;;;;;4167010;28;20045;-73
2021/01/30 10:20:46;;;;;;;6.95;1.42;;;18.30;77.40;;;;;;4176488;28;20041;-73
2021/01/30 10:22:57;;;;;;;8.17;1.60;;;18.80;75.30;;;;;;4176008;28;20516;-75
2021/01/30 10:25:07;;;;;;;6.85;1.60;;;19.00;74.80;;;;;;4196102;28;20048;-76
2021/01/30 10:27:17;;;;;;;9.88;1.35;;;19.00;74.90;;;;;;4175898;28;20519;-74
2021/01/30 10:29:24;;;;;;;12.95;1.60;;;19.20;74.40;;;;;;4184695;28;20448;-74
2021/01/30 10:31:35;;;;;;;7.30;1.83;;;19.40;73.40;;;;;;4188108;28;20459;-75
2021/01/30 10:33:40;;;;;;;4.88;1.50;;;19.30;72.90;;;;;;4197671;28;20044;-74
2021/01/30 10:35:49;;;;;;;8.52;1.75;;;19.40;73.00;;;;;;4198114;28;20090;-74
2021/01/30 10:37:55;;;;;;;6.43;1.40;;;19.60;72.20;;;;;;4191379;28;20069;-71
2021/01/30 10:40:02;;;;;;;5.68;1.40;;;19.80;71.60;;;;;;4178561;28;20055;-73
2021/01/30 10:42:09;;;;;;;6.50;1.48;;;19.90;71.10;;;;;;4178289;28;20076;-73
2021/01/30 10:44:19;;;;;;;10.63;1.48;;;19.80;71.30;;;;;;4179599;28;20044;-73
2021/01/30 10:46:29;;;;;;;4.88;1.30;;;19.90;70.60;;;;;;4179346;28;20549;-72
2021/01/30 10:48:33;;;;;;;11.73;1.83;;;20.00;70.50;;;;;;4196445;28;20462;-74
2021/01/30 10:50:38;;;;;;;6.20;1.80;;;20.20;69.40;;;;;;4186067;28;20099;-73
2021/01/30 10:52:41;;;;;;;8.23;2.00;;;20.10;69.50;;;;;;4188314;28;20056;-74
2021/01/30 10:54:44;;;;;;;4.88;1.30;;;20.20;69.30;;;;;;4193258;28;20150;-71
2021/01/30 10:57:01;;;;;;;7.47;1.85;;;20.00;69.30;;;;;;4190118;28;20072;-72
2021/01/30 10:59:21;;;;;;;6.45;1.92;;;19.90;69.50;;;;;;4193381;28;20037;-72
2021/01/30 11:01:29;;;;;;;9.60;1.70;;;19.70;70.20;;;;;;4193264;28;20048;-72